sensor_id;sensor_type;location;lat;lon;timestamp;pressure;altitude;pressure_sealevel;temperature;humidity
4617;BME280;2321;42.704;23.384;2023-04-08T00:01:18;95539.09;;;6.93;nan
4617;BME280;2321;42.704;23.384;2023-04-08T00:03:44;95541.25;;;6.90;nan
4617;BME280;2321;42.704;23.384;2023-04-08T00:06:11;95540.44;;;6.89;nan
4617;BME280;2321;42.704;23.384;2023-04-08T00:08:38;95537.94;;;6.88;nan
4617;BME280;2321;42.704;23.384;2023-04-08T00:11:06;95536.94;;;6.80;nan
4617;BME280;2321;42.704;23.384;2023-04-08T00:13:33;95540.59;;;6.71;nan
4617;BME280;2321;42.704;23.384;2023-04-08T00:15:59;95547.00;;;6.60;nan
4617;BME280;2321;42.704;23.384;2023-04-08T00:18:28;95544.69;;;6.57;nan
4617;BME280;2321;42.704;23.384;2023-04-08T00:20:54;95543.00;;;6.47;nan
4617;BME280;2321;42.704;23.384;2023-04-08T00:23:22;95542.53;;;6.43;nan
4617;BME280;2321;42.704;23.384;2023-04-08T00:25:49;95545.31;;;6.42;nan
4617;BME280;2321;42.704;23.384;2023-04-08T00:28:16;95536.75;;;6.40;nan
4617;BME280;2321;42.704;23.384;2023-04-08T00:30:43;95544.34;;;6.35;nan
4617;BME280;2321;42.704;23.384;2023-04-08T00:33:10;95544.16;;;6.36;nan
4617;BME280;2321;42.704;23.384;2023-04-08T00:35:38;95541.50;;;6.36;nan
4617;BME280;2321;42.704;23.384;2023-04-08T00:38:05;95549.31;;;6.38;nan
4617;BME280;2321;42.704;23.384;2023-04-08T00:40:33;95542.66;;;6.34;nan
4617;BME280;2321;42.704;23.384;2023-04-08T00:43:00;95540.84;;;6.34;nan
4617;BME280;2321;42.704;23.384;2023-04-08T00:45:27;95540.16;;;6.32;nan
4617;BME280;2321;42.704;23.384;2023-04-08T00:47:53;95551.25;;;6.36;nan
4617;BME280;2321;42.704;23.384;2023-04-08T00:50:21;95556.56;;;6.36;nan
4617;BME280;2321;42.704;23.384;2023-04-08T00:52:50;95550.59;;;6.34;nan
4617;BME280;2321;42.704;23.384;2023-04-08T00:55:17;95547.63;;;6.28;nan
4617;BME280;2321;42.704;23.384;2023-04-08T00:57:44;95548.44;;;6.29;nan
4617;BME280;2321;42.704;23.384;2023-04-08T01:00:12;95554.72;;;6.28;nan
4617;BME280;2321;42.704;23.384;2023-04-08T01:02:44;95553.56;;;6.30;nan
4617;BME280;2321;42.704;23.384;2023-04-08T01:05:18;95553.06;;;6.27;nan
4617;BME280;2321;42.704;23.384;2023-04-08T01:07:47;95555.19;;;6.23;nan
4617;BME280;2321;42.704;23.384;2023-04-08T01:10:17;95553.56;;;6.22;nan
4617;BME280;2321;42.704;23.384;2023-04-08T01:12:49;95551.88;;;6.21;nan
4617;BME280;2321;42.704;23.384;2023-04-08T01:15:17;95550.91;;;6.22;nan
4617;BME280;2321;42.704;23.384;2023-04-08T01:17:45;95546.75;;;6.19;nan
4617;BME280;2321;42.704;23.384;2023-04-08T01:20:13;95549.41;;;6.19;nan
4617;BME280;2321;42.704;23.384;2023-04-08T01:22:51;95546.09;;;6.17;nan
4617;BME280;2321;42.704;23.384;2023-04-08T01:25:25;95552.53;;;6.15;nan
4617;BME280;2321;42.704;23.384;2023-04-08T01:27:55;95552.00;;;6.11;nan
4617;BME280;2321;42.704;23.384;2023-04-08T01:30:24;95553.38;;;6.15;nan
4617;BME280;2321;42.704;23.384;2023-04-08T01:32:52;95554.84;;;6.18;nan
4617;BME280;2321;42.704;23.384;2023-04-08T01:35:20;95553.88;;;6.19;nan
4617;BME280;2321;42.704;23.384;2023-04-08T01:37:48;95556.00;;;6.15;nan
4617;BME280;2321;42.704;23.384;2023-04-08T01:40:16;95558.47;;;6.08;nan
4617;BME280;2321;42.704;23.384;2023-04-08T01:42:44;95556.66;;;6.09;nan
4617;BME280;2321;42.704;23.384;2023-04-08T01:45:15;95555.81;;;6.08;nan
4617;BME280;2321;42.704;23.384;2023-04-08T01:47:44;95556.41;;;6.02;nan
4617;BME280;2321;42.704;23.384;2023-04-08T01:50:13;95556.75;;;6.07;nan
4617;BME280;2321;42.704;23.384;2023-04-08T01:52:44;95557.06;;;6.04;nan
4617;BME280;2321;42.704;23.384;2023-04-08T01:55:11;95559.41;;;6.07;nan
4617;BME280;2321;42.704;23.384;2023-04-08T01:57:40;95559.25;;;6.01;nan
4617;BME280;2321;42.704;23.384;2023-04-08T02:00:11;95563.38;;;6.03;nan
4617;BME280;2321;42.704;23.384;2023-04-08T02:02:41;95565.50;;;5.99;nan
4617;BME280;2321;42.704;23.384;2023-04-08T02:05:09;95569.63;;;6.02;nan
4617;BME280;2321;42.704;23.384;2023-04-08T02:07:36;95571.13;;;6.05;nan
4617;BME280;2321;42.704;23.384;2023-04-08T02:10:04;95577.25;;;6.05;nan
4617;BME280;2321;42.704;23.384;2023-04-08T02:12:32;95579.06;;;6.05;nan
4617;BME280;2321;42.704;23.384;2023-04-08T02:14:59;95584.84;;;6.00;nan
4617;BME280;2321;42.704;23.384;2023-04-08T02:17:32;95590.63;;;6.04;nan
4617;BME280;2321;42.704;23.384;2023-04-08T02:20:06;95581.88;;;6.03;nan
4617;BME280;2321;42.704;23.384;2023-04-08T02:22:39;95577.25;;;6.05;nan
4617;BME280;2321;42.704;23.384;2023-04-08T02:25:12;95583.91;;;6.09;nan
4617;BME280;2321;42.704;23.384;2023-04-08T02:27:40;95572.13;;;6.04;nan
4617;BME280;2321;42.704;23.384;2023-04-08T02:30:09;95588.66;;;6.06;nan
4617;BME280;2321;42.704;23.384;2023-04-08T02:32:37;95585.84;;;6.07;nan
4617;BME280;2321;42.704;23.384;2023-04-08T02:35:06;95583.91;;;6.09;nan
4617;BME280;2321;42.704;23.384;2023-04-08T02:37:34;95581.94;;;6.12;nan
4617;BME280;2321;42.704;23.384;2023-04-08T02:40:01;95572.34;;;6.10;nan
4617;BME280;2321;42.704;23.384;2023-04-08T02:42:28;95574.19;;;6.10;nan
4617;BME280;2321;42.704;23.384;2023-04-08T02:44:56;95577.78;;;6.09;nan
4617;BME280;2321;42.704;23.384;2023-04-08T02:47:23;95580.56;;;6.07;nan
4617;BME280;2321;42.704;23.384;2023-04-08T02:49:49;95575.97;;;6.09;nan
4617;BME280;2321;42.704;23.384;2023-04-08T02:52:19;95576.97;;;6.08;nan
4617;BME280;2321;42.704;23.384;2023-04-08T02:54:46;95578.44;;;6.11;nan
4617;BME280;2321;42.704;23.384;2023-04-08T02:57:13;95580.06;;;6.04;nan
4617;BME280;2321;42.704;23.384;2023-04-08T02:59:41;95571.75;;;5.98;nan
4617;BME280;2321;42.704;23.384;2023-04-08T03:02:08;95576.25;;;5.98;nan
4617;BME280;2321;42.704;23.384;2023-04-08T03:04:35;95587.31;;;6.02;nan
4617;BME280;2321;42.704;23.384;2023-04-08T03:07:02;95588.78;;;6.04;nan
4617;BME280;2321;42.704;23.384;2023-04-08T03:09:30;95585.81;;;5.99;nan
4617;BME280;2321;42.704;23.384;2023-04-08T03:11:57;95584.81;;;5.92;nan
4617;BME280;2321;42.704;23.384;2023-04-08T03:14:23;95589.59;;;5.96;nan
4617;BME280;2321;42.704;23.384;2023-04-08T03:16:50;95577.88;;;5.99;nan
4617;BME280;2321;42.704;23.384;2023-04-08T03:19:17;95572.59;;;5.99;nan
4617;BME280;2321;42.704;23.384;2023-04-08T03:21:44;95570.13;;;5.97;nan
4617;BME280;2321;42.704;23.384;2023-04-08T03:24:11;95573.59;;;5.98;nan
4617;BME280;2321;42.704;23.384;2023-04-08T03:26:39;95576.25;;;5.98;nan
4617;BME280;2321;42.704;23.384;2023-04-08T03:29:06;95571.63;;;6.00;nan
4617;BME280;2321;42.704;23.384;2023-04-08T03:31:33;95580.84;;;5.96;nan
4617;BME280;2321;42.704;23.384;2023-04-08T03:33:59;95583.28;;;5.89;nan
4617;BME280;2321;42.704;23.384;2023-04-08T03:36:26;95584.44;;;5.86;nan
4617;BME280;2321;42.704;23.384;2023-04-08T03:38:53;95591.53;;;5.86;nan
4617;BME280;2321;42.704;23.384;2023-04-08T03:41:20;95586.72;;;5.81;nan
4617;BME280;2321;42.704;23.384;2023-04-08T03:43:48;95582.91;;;5.75;nan
4617;BME280;2321;42.704;23.384;2023-04-08T03:46:15;95580.78;;;5.79;nan
4617;BME280;2321;42.704;23.384;2023-04-08T03:48:42;95584.75;;;5.83;nan
4617;BME280;2321;42.704;23.384;2023-04-08T03:51:09;95594.00;;;5.79;nan
4617;BME280;2321;42.704;23.384;2023-04-08T03:53:36;95603.25;;;5.83;nan
4617;BME280;2321;42.704;23.384;2023-04-08T03:56:03;95593.38;;;5.85;nan
4617;BME280;2321;42.704;23.384;2023-04-08T03:58:30;95587.06;;;5.86;nan
4617;BME280;2321;42.704;23.384;2023-04-08T04:00:58;95581.97;;;5.85;nan
4617;BME280;2321;42.704;23.384;2023-04-08T04:03:25;95583.28;;;5.89;nan
4617;BME280;2321;42.704;23.384;2023-04-08T04:05:52;95578.81;;;5.89;nan
4617;BME280;2321;42.704;23.384;2023-04-08T04:08:19;95578.00;;;5.89;nan
4617;BME280;2321;42.704;23.384;2023-04-08T04:10:46;95580.94;;;5.86;nan
4617;BME280;2321;42.704;23.384;2023-04-08T04:13:13;95578.81;;;5.81;nan
4617;BME280;2321;42.704;23.384;2023-04-08T04:15:40;95576.69;;;5.85;nan
4617;BME280;2321;42.704;23.384;2023-04-08T04:18:08;95575.84;;;5.84;nan
4617;BME280;2321;42.704;23.384;2023-04-08T04:20:38;95586.72;;;5.81;nan
4617;BME280;2321;42.704;23.384;2023-04-08T04:23:05;95586.41;;;5.84;nan
4617;BME280;2321;42.704;23.384;2023-04-08T04:25:32;95590.53;;;5.87;nan
4617;BME280;2321;42.704;23.384;2023-04-08T04:27:59;95594.03;;;5.87;nan
4617;BME280;2321;42.704;23.384;2023-04-08T04:30:27;95592.03;;;5.89;nan
4617;BME280;2321;42.704;23.384;2023-04-08T04:32:54;95598.34;;;5.88;nan
4617;BME280;2321;42.704;23.384;2023-04-08T04:35:23;95598.81;;;5.92;nan
4617;BME280;2321;42.704;23.384;2023-04-08T04:37:50;95599.19;;;5.97;nan
4617;BME280;2321;42.704;23.384;2023-04-08T04:40:18;95603.00;;;5.95;nan
4617;BME280;2321;42.704;23.384;2023-04-08T04:42:45;95600.03;;;5.98;nan
4617;BME280;2321;42.704;23.384;2023-04-08T04:45:12;95601.34;;;6.02;nan
4617;BME280;2321;42.704;23.384;2023-04-08T04:47:39;95602.00;;;6.04;nan
4617;BME280;2321;42.704;23.384;2023-04-08T04:50:06;95593.78;;;6.07;nan
4617;BME280;2321;42.704;23.384;2023-04-08T04:52:36;95602.00;;;6.04;nan
4617;BME280;2321;42.704;23.384;2023-04-08T04:55:03;95596.72;;;6.04;nan
4617;BME280;2321;42.704;23.384;2023-04-08T04:57:30;95597.56;;;6.05;nan
4617;BME280;2321;42.704;23.384;2023-04-08T04:59:57;95601.88;;;6.06;nan
4617;BME280;2321;42.704;23.384;2023-04-08T05:02:24;95600.06;;;6.06;nan
4617;BME280;2321;42.704;23.384;2023-04-08T05:04:51;95590.13;;;6.00;nan
4617;BME280;2321;42.704;23.384;2023-04-08T05:07:20;95615.31;;;6.13;nan
4617;BME280;2321;42.704;23.384;2023-04-08T05:09:48;95610.38;;;6.18;nan
4617;BME280;2321;42.704;23.384;2023-04-08T05:12:15;95610.72;;;6.23;nan
4617;BME280;2321;42.704;23.384;2023-04-08T05:14:42;95606.13;;;6.25;nan
4617;BME280;2321;42.704;23.384;2023-04-08T05:17:09;95607.75;;;6.26;nan
4617;BME280;2321;42.704;23.384;2023-04-08T05:19:36;95609.25;;;6.29;nan
4617;BME280;2321;42.704;23.384;2023-04-08T05:22:02;95602.84;;;6.31;nan
4617;BME280;2321;42.704;23.384;2023-04-08T05:24:29;95606.47;;;6.30;nan
4617;BME280;2321;42.704;23.384;2023-04-08T05:26:58;95607.81;;;6.35;nan
4617;BME280;2321;42.704;23.384;2023-04-08T05:29:25;95605.81;;;6.37;nan
4617;BME280;2321;42.704;23.384;2023-04-08T05:31:52;95603.31;;;6.35;nan
4617;BME280;2321;42.704;23.384;2023-04-08T05:34:20;95600.88;;;6.42;nan
4617;BME280;2321;42.704;23.384;2023-04-08T05:36:48;95602.69;;;6.41;nan
4617;BME280;2321;42.704;23.384;2023-04-08T05:39:16;95605.19;;;6.43;nan
4617;BME280;2321;42.704;23.384;2023-04-08T05:41:43;95602.88;;;6.48;nan
4617;BME280;2321;42.704;23.384;2023-04-08T05:44:12;95616.28;;;6.55;nan
4617;BME280;2321;42.704;23.384;2023-04-08T05:46:39;95606.69;;;6.54;nan
4617;BME280;2321;42.704;23.384;2023-04-08T05:49:06;95614.16;;;6.67;nan
4617;BME280;2321;42.704;23.384;2023-04-08T05:51:33;95606.56;;;6.72;nan
4617;BME280;2321;42.704;23.384;2023-04-08T05:54:00;95609.56;;;6.78;nan
4617;BME280;2321;42.704;23.384;2023-04-08T05:56:27;95613.84;;;6.87;nan
4617;BME280;2321;42.704;23.384;2023-04-08T05:58:54;95608.59;;;6.95;nan
4617;BME280;2321;42.704;23.384;2023-04-08T06:01:22;95603.44;;;7.02;nan
4617;BME280;2321;42.704;23.384;2023-04-08T06:03:49;95608.41;;;7.05;nan
4617;BME280;2321;42.704;23.384;2023-04-08T06:06:17;95604.94;;;6.96;nan
4617;BME280;2321;42.704;23.384;2023-04-08T06:08:44;95608.41;;;7.05;nan
4617;BME280;2321;42.704;23.384;2023-04-08T06:11:14;95608.59;;;7.12;nan
4617;BME280;2321;42.704;23.384;2023-04-08T06:13:41;95600.66;;;7.21;nan
4617;BME280;2321;42.704;23.384;2023-04-08T06:16:12;95599.16;;;7.26;nan
4617;BME280;2321;42.704;23.384;2023-04-08T06:18:41;95595.03;;;7.32;nan
4617;BME280;2321;42.704;23.384;2023-04-08T06:21:09;95596.31;;;7.36;nan
4617;BME280;2321;42.704;23.384;2023-04-08T06:23:35;95593.00;;;7.43;nan
4617;BME280;2321;42.704;23.384;2023-04-08T06:26:02;95594.69;;;7.44;nan
4617;BME280;2321;42.704;23.384;2023-04-08T06:28:30;95598.63;;;7.56;nan
4617;BME280;2321;42.704;23.384;2023-04-08T06:30:57;95604.25;;;7.61;nan
4617;BME280;2321;42.704;23.384;2023-04-08T06:33:24;95599.75;;;7.70;nan
4617;BME280;2321;42.704;23.384;2023-04-08T06:36:00;95606.66;;;7.88;nan
4617;BME280;2321;42.704;23.384;2023-04-08T06:38:27;95609.47;;;7.95;nan
4617;BME280;2321;42.704;23.384;2023-04-08T06:40:54;95603.34;;;8.03;nan
4617;BME280;2321;42.704;23.384;2023-04-08T06:43:21;95602.47;;;8.11;nan
4617;BME280;2321;42.704;23.384;2023-04-08T06:45:48;95599.97;;;8.17;nan
4617;BME280;2321;42.704;23.384;2023-04-08T06:48:16;95603.91;;;8.30;nan
4617;BME280;2321;42.704;23.384;2023-04-08T06:50:43;95599.72;;;8.36;nan
4617;BME280;2321;42.704;23.384;2023-04-08T06:53:11;95604.63;;;8.47;nan
4617;BME280;2321;42.704;23.384;2023-04-08T06:55:38;95606.59;;;8.54;nan
4617;BME280;2321;42.704;23.384;2023-04-08T06:58:05;95601.59;;;8.67;nan
4617;BME280;2321;42.704;23.384;2023-04-08T07:00:32;95606.56;;;8.70;nan
4617;BME280;2321;42.704;23.384;2023-04-08T07:02:59;95604.81;;;8.78;nan
4617;BME280;2321;42.704;23.384;2023-04-08T07:05:25;95604.97;;;8.85;nan
4617;BME280;2321;42.704;23.384;2023-04-08T07:07:52;95597.00;;;8.85;nan
4617;BME280;2321;42.704;23.384;2023-04-08T07:10:21;95614.41;;;8.87;nan
4617;BME280;2321;42.704;23.384;2023-04-08T07:12:47;95605.25;;;8.90;nan
4617;BME280;2321;42.704;23.384;2023-04-08T07:15:15;95607.19;;;8.96;nan
4617;BME280;2321;42.704;23.384;2023-04-08T07:17:42;95609.97;;;9.03;nan
4617;BME280;2321;42.704;23.384;2023-04-08T07:20:10;95613.13;;;9.07;nan
4617;BME280;2321;42.704;23.384;2023-04-08T07:22:38;95615.91;;;9.13;nan
4617;BME280;2321;42.704;23.384;2023-04-08T07:25:05;95620.50;;;9.20;nan
4617;BME280;2321;42.704;23.384;2023-04-08T07:27:34;95592.34;;;9.10;nan
4617;BME280;2321;42.704;23.384;2023-04-08T07:30:01;95624.72;;;9.29;nan
4617;BME280;2321;42.704;23.384;2023-04-08T07:32:28;95620.78;;;9.25;nan
4617;BME280;2321;42.704;23.384;2023-04-08T07:34:54;95620.22;;;9.30;nan
4617;BME280;2321;42.704;23.384;2023-04-08T07:37:21;95622.06;;;9.29;nan
4617;BME280;2321;42.704;23.384;2023-04-08T07:39:48;95625.66;;;9.36;nan
4617;BME280;2321;42.704;23.384;2023-04-08T07:42:15;95627.81;;;9.41;nan
4617;BME280;2321;42.704;23.384;2023-04-08T07:44:44;95635.41;;;9.44;nan
4617;BME280;2321;42.704;23.384;2023-04-08T07:47:11;95636.69;;;9.48;nan
4617;BME280;2321;42.704;23.384;2023-04-08T07:49:38;95612.84;;;9.40;nan
4617;BME280;2321;42.704;23.384;2023-04-08T07:52:05;95635.25;;;9.61;nan
4617;BME280;2321;42.704;23.384;2023-04-08T07:54:32;95622.97;;;9.60;nan
4617;BME280;2321;42.704;23.384;2023-04-08T07:56:59;95641.91;;;9.80;nan
4617;BME280;2321;42.704;23.384;2023-04-08T07:59:27;95632.00;;;9.89;nan
4617;BME280;2321;42.704;23.384;2023-04-08T08:01:55;95638.44;;;9.95;nan
4617;BME280;2321;42.704;23.384;2023-04-08T08:04:22;95639.25;;;9.96;nan
4617;BME280;2321;42.704;23.384;2023-04-08T08:06:50;95640.09;;;9.96;nan
4617;BME280;2321;42.704;23.384;2023-04-08T08:09:17;95646.69;;;10.00;nan
4617;BME280;2321;42.704;23.384;2023-04-08T08:11:44;95643.28;;;10.07;nan
4617;BME280;2321;42.704;23.384;2023-04-08T08:14:11;95648.53;;;10.15;nan
4617;BME280;2321;42.704;23.384;2023-04-08T08:16:38;95645.22;;;10.28;nan
4617;BME280;2321;42.704;23.384;2023-04-08T08:19:07;95646.78;;;10.38;nan
4617;BME280;2321;42.704;23.384;2023-04-08T08:21:35;95645.03;;;10.45;nan
4617;BME280;2321;42.704;23.384;2023-04-08T08:24:02;95652.81;;;10.46;nan
4617;BME280;2321;42.704;23.384;2023-04-08T08:26:29;95645.06;;;10.60;nan
4617;BME280;2321;42.704;23.384;2023-04-08T08:28:56;95657.88;;;10.72;nan
4617;BME280;2321;42.704;23.384;2023-04-08T08:31:23;95643.09;;;10.69;nan
4617;BME280;2321;42.704;23.384;2023-04-08T08:33:50;95654.47;;;10.78;nan
4617;BME280;2321;42.704;23.384;2023-04-08T08:36:18;95663.09;;;10.80;nan
4617;BME280;2321;42.704;23.384;2023-04-08T08:41:12;95666.09;;;10.92;nan
4617;BME280;2321;42.704;23.384;2023-04-08T08:43:39;95664.00;;;10.87;nan
4617;BME280;2321;42.704;23.384;2023-04-08T08:46:09;95663.00;;;10.88;nan
4617;BME280;2321;42.704;23.384;2023-04-08T08:48:36;95661.97;;;10.89;nan
4617;BME280;2321;42.704;23.384;2023-04-08T08:51:07;95662.06;;;10.96;nan
4617;BME280;2321;42.704;23.384;2023-04-08T08:53:36;95665.34;;;10.98;nan
4617;BME280;2321;42.704;23.384;2023-04-08T08:56:04;95659.84;;;11.00;nan
4617;BME280;2321;42.704;23.384;2023-04-08T08:58:34;95660.00;;;10.98;nan
4617;BME280;2321;42.704;23.384;2023-04-08T09:01:01;95659.63;;;11.02;nan
4617;BME280;2321;42.704;23.384;2023-04-08T09:03:28;95671.13;;;11.02;nan
4617;BME280;2321;42.704;23.384;2023-04-08T09:05:56;95667.19;;;10.98;nan
4617;BME280;2321;42.704;23.384;2023-04-08T09:08:28;95673.53;;;10.97;nan
4617;BME280;2321;42.704;23.384;2023-04-08T09:11:10;95669.22;;;10.96;nan
4617;BME280;2321;42.704;23.384;2023-04-08T09:13:38;95668.66;;;11.00;nan
4617;BME280;2321;42.704;23.384;2023-04-08T09:16:06;95671.13;;;11.02;nan
4617;BME280;2321;42.704;23.384;2023-04-08T09:18:34;95672.03;;;11.09;nan
4617;BME280;2321;42.704;23.384;2023-04-08T09:21:02;95663.38;;;11.07;nan
4617;BME280;2321;42.704;23.384;2023-04-08T09:23:47;95658.59;;;11.18;nan
4617;BME280;2321;42.704;23.384;2023-04-08T09:26:17;95665.00;;;11.24;nan
4617;BME280;2321;42.704;23.384;2023-04-08T09:28:57;95662.03;;;11.33;nan
4617;BME280;2321;42.704;23.384;2023-04-08T09:31:25;95658.47;;;11.48;nan
4617;BME280;2321;42.704;23.384;2023-04-08T09:33:54;95650.81;;;11.67;nan
4617;BME280;2321;42.704;23.384;2023-04-08T09:36:21;95648.59;;;11.71;nan
4617;BME280;2321;42.704;23.384;2023-04-08T09:38:48;95645.34;;;11.75;nan
4617;BME280;2321;42.704;23.384;2023-04-08T09:41:17;95649.66;;;11.76;nan
4617;BME280;2321;42.704;23.384;2023-04-08T09:43:47;95642.28;;;11.79;nan
4617;BME280;2321;42.704;23.384;2023-04-08T09:46:15;95631.44;;;11.80;nan
4617;BME280;2321;42.704;23.384;2023-04-08T09:49:00;95636.56;;;11.82;nan
4617;BME280;2321;42.704;23.384;2023-04-08T09:51:32;95618.44;;;11.70;nan
4617;BME280;2321;42.704;23.384;2023-04-08T09:54:03;95634.78;;;11.89;nan
4617;BME280;2321;42.704;23.384;2023-04-08T09:56:48;95633.00;;;12.03;nan
4617;BME280;2321;42.704;23.384;2023-04-08T09:59:17;95636.00;;;12.15;nan
4617;BME280;2321;42.704;23.384;2023-04-08T10:01:53;95629.88;;;12.22;nan
4617;BME280;2321;42.704;23.384;2023-04-08T10:04:23;95624.44;;;12.44;nan
4617;BME280;2321;42.704;23.384;2023-04-08T10:06:57;95617.94;;;12.67;nan
4617;BME280;2321;42.704;23.384;2023-04-08T10:09:27;95612.22;;;12.77;nan
4617;BME280;2321;42.704;23.384;2023-04-08T10:11:56;95617.38;;;12.78;nan
4617;BME280;2321;42.704;23.384;2023-04-08T10:14:23;95614.94;;;12.83;nan
4617;BME280;2321;42.704;23.384;2023-04-08T10:17:23;95603.88;;;13.00;nan
4617;BME280;2321;42.704;23.384;2023-04-08T10:19:51;95603.28;;;13.25;nan
4617;BME280;2321;42.704;23.384;2023-04-08T10:22:46;95598.16;;;13.51;nan
4617;BME280;2321;42.704;23.384;2023-04-08T10:25:28;95605.19;;;13.59;nan
4617;BME280;2321;42.704;23.384;2023-04-08T10:27:57;95602.50;;;13.52;nan
4617;BME280;2321;42.704;23.384;2023-04-08T10:30:42;95611.13;;;13.47;nan
4617;BME280;2321;42.704;23.384;2023-04-08T10:33:11;95596.09;;;13.33;nan
4617;BME280;2321;42.704;23.384;2023-04-08T10:35:41;95602.28;;;13.33;nan
4617;BME280;2321;42.704;23.384;2023-04-08T10:38:11;95597.34;;;13.37;nan
4617;BME280;2321;42.704;23.384;2023-04-08T10:40:38;95603.31;;;13.39;nan
4617;BME280;2321;42.704;23.384;2023-04-08T10:43:09;95597.34;;;13.37;nan
4617;BME280;2321;42.704;23.384;2023-04-08T10:45:36;95594.44;;;13.32;nan
4617;BME280;2321;42.704;23.384;2023-04-08T10:48:14;95595.28;;;13.32;nan
4617;BME280;2321;42.704;23.384;2023-04-08T10:50:42;95588.91;;;13.26;nan
4617;BME280;2321;42.704;23.384;2023-04-08T10:53:09;95582.94;;;13.24;nan
4617;BME280;2321;42.704;23.384;2023-04-08T10:55:36;95587.88;;;13.27;nan
4617;BME280;2321;42.704;23.384;2023-04-08T10:58:05;95580.88;;;13.33;nan
4617;BME280;2321;42.704;23.384;2023-04-08T11:00:35;95581.72;;;13.34;nan
4617;BME280;2321;42.704;23.384;2023-04-08T11:03:02;95571.84;;;13.27;nan
4617;BME280;2321;42.704;23.384;2023-04-08T11:05:29;95573.88;;;13.25;nan
4617;BME280;2321;42.704;23.384;2023-04-08T11:07:56;95568.13;;;13.42;nan
4617;BME280;2321;42.704;23.384;2023-04-08T11:10:24;95562.78;;;13.49;nan
4617;BME280;2321;42.704;23.384;2023-04-08T11:12:52;95558.66;;;13.46;nan
4617;BME280;2321;42.704;23.384;2023-04-08T11:15:20;95565.47;;;13.49;nan
4617;BME280;2321;42.704;23.384;2023-04-08T11:17:49;95565.66;;;13.40;nan
4617;BME280;2321;42.704;23.384;2023-04-08T11:20:16;95558.66;;;13.39;nan
4617;BME280;2321;42.704;23.384;2023-04-08T11:22:43;95558.84;;;13.38;nan
4617;BME280;2321;42.704;23.384;2023-04-08T11:25:10;95561.53;;;13.38;nan
4617;BME280;2321;42.704;23.384;2023-04-08T11:27:38;95543.66;;;13.59;nan
4617;BME280;2321;42.704;23.384;2023-04-08T11:30:06;95536.44;;;13.80;nan
4617;BME280;2321;42.704;23.384;2023-04-08T11:32:34;95546.84;;;14.02;nan
4617;BME280;2321;42.704;23.384;2023-04-08T11:35:03;95534.69;;;14.13;nan
4617;BME280;2321;42.704;23.384;2023-04-08T11:37:36;95539.38;;;14.24;nan
4617;BME280;2321;42.704;23.384;2023-04-08T11:40:06;95542.63;;;14.33;nan
4617;BME280;2321;42.704;23.384;2023-04-08T11:42:33;95535.81;;;14.44;nan
4617;BME280;2321;42.704;23.384;2023-04-08T11:45:00;95535.91;;;14.63;nan
4617;BME280;2321;42.704;23.384;2023-04-08T11:47:31;95532.69;;;14.87;nan
4617;BME280;2321;42.704;23.384;2023-04-08T11:49:58;95526.81;;;15.03;nan
4617;BME280;2321;42.704;23.384;2023-04-08T11:52:42;95524.47;;;15.14;nan
4617;BME280;2321;42.704;23.384;2023-04-08T11:55:09;95520.25;;;15.25;nan
4617;BME280;2321;42.704;23.384;2023-04-08T11:57:37;95523.72;;;15.32;nan
4617;BME280;2321;42.704;23.384;2023-04-08T12:00:05;95521.69;;;15.28;nan
4617;BME280;2321;42.704;23.384;2023-04-08T12:02:32;95506.56;;;15.33;nan
4617;BME280;2321;42.704;23.384;2023-04-08T12:04:58;95512.75;;;15.34;nan
4617;BME280;2321;42.704;23.384;2023-04-08T12:07:25;95512.31;;;15.37;nan
4617;BME280;2321;42.704;23.384;2023-04-08T12:09:53;95506.69;;;15.45;nan
4617;BME280;2321;42.704;23.384;2023-04-08T12:12:21;95504.91;;;15.58;nan
4617;BME280;2321;42.704;23.384;2023-04-08T12:14:47;95505.50;;;15.60;nan
4617;BME280;2321;42.704;23.384;2023-04-08T12:17:14;95508.34;;;15.65;nan
4617;BME280;2321;42.704;23.384;2023-04-08T12:19:41;95501.31;;;15.64;nan
4617;BME280;2321;42.704;23.384;2023-04-08T12:22:08;95501.66;;;15.75;nan
4617;BME280;2321;42.704;23.384;2023-04-08T12:24:35;95498.28;;;15.79;nan
4617;BME280;2321;42.704;23.384;2023-04-08T12:27:03;95498.84;;;15.88;nan
4617;BME280;2321;42.704;23.384;2023-04-08T12:29:30;95497.31;;;15.93;nan
4617;BME280;2321;42.704;23.384;2023-04-08T12:31:57;95489.19;;;15.99;nan
4617;BME280;2321;42.704;23.384;2023-04-08T12:34:24;95500.75;;;16.00;nan
4617;BME280;2321;42.704;23.384;2023-04-08T12:36:51;95496.16;;;16.07;nan
4617;BME280;2321;42.704;23.384;2023-04-08T12:39:18;95495.41;;;16.19;nan
4617;BME280;2321;42.704;23.384;2023-04-08T12:41:45;95486.59;;;16.11;nan
4617;BME280;2321;42.704;23.384;2023-04-08T12:44:13;95485.25;;;16.02;nan
4617;BME280;2321;42.704;23.384;2023-04-08T12:46:40;95482.47;;;15.71;nan
4617;BME280;2321;42.704;23.384;2023-04-08T12:49:07;95486.19;;;15.51;nan
4617;BME280;2321;42.704;23.384;2023-04-08T12:51:34;95486.31;;;15.38;nan
4617;BME280;2321;42.704;23.384;2023-04-08T12:54:01;95485.69;;;15.17;nan
4617;BME280;2321;42.704;23.384;2023-04-08T12:56:28;95486.44;;;14.98;nan
4617;BME280;2321;42.704;23.384;2023-04-08T12:58:56;95493.16;;;14.75;nan
4617;BME280;2321;42.704;23.384;2023-04-08T13:01:24;95490.84;;;14.53;nan
4617;BME280;2321;42.704;23.384;2023-04-08T13:03:51;95493.19;;;14.36;nan
4617;BME280;2321;42.704;23.384;2023-04-08T13:06:18;95495.94;;;14.22;nan
4617;BME280;2321;42.704;23.384;2023-04-08T13:08:45;95491.84;;;14.20;nan
4617;BME280;2321;42.704;23.384;2023-04-08T13:11:13;95491.66;;;14.08;nan
4617;BME280;2321;42.704;23.384;2023-04-08T13:13:40;95494.38;;;14.01;nan
4617;BME280;2321;42.704;23.384;2023-04-08T13:16:06;95484.91;;;13.98;nan
4617;BME280;2321;42.704;23.384;2023-04-08T13:18:35;95488.81;;;13.96;nan
4617;BME280;2321;42.704;23.384;2023-04-08T13:21:02;95490.91;;;13.87;nan
4617;BME280;2321;42.704;23.384;2023-04-08T13:23:29;95484.97;;;13.78;nan
4617;BME280;2321;42.704;23.384;2023-04-08T13:25:55;95486.81;;;13.77;nan
4617;BME280;2321;42.704;23.384;2023-04-08T13:28:22;95487.03;;;13.76;nan
4617;BME280;2321;42.704;23.384;2023-04-08T13:30:49;95487.44;;;13.79;nan
4617;BME280;2321;42.704;23.384;2023-04-08T13:33:16;95486.22;;;13.75;nan
4617;BME280;2321;42.704;23.384;2023-04-08T13:35:44;95489.28;;;13.79;nan
4617;BME280;2321;42.704;23.384;2023-04-08T13:38:11;95486.19;;;13.82;nan
4617;BME280;2321;42.704;23.384;2023-04-08T13:40:38;95479.59;;;13.85;nan
4617;BME280;2321;42.704;23.384;2023-04-08T13:43:06;95487.41;;;13.86;nan
4617;BME280;2321;42.704;23.384;2023-04-08T13:45:33;95478.56;;;13.86;nan
4617;BME280;2321;42.704;23.384;2023-04-08T13:48:01;95481.84;;;13.88;nan